CW6538 Cattolica IT current weather conditions

sailwx.info

Wind from 221 at 0 knots gusting 4

Air temperature 4.4° C
Dewpoint 1.8° C

Last reported at 2017-Feb-20 07:54 UTC.
Time now 2017-Feb-20 08:54 UTC

Location: N 43°58' E 012°44'.
View on Google Maps.

See reports from other nearby stations

  
Tides and Currents Weather Stations Pressure Air Temp Water Temp Dewpoint Dewpoint Depression Visibility Wind Speed Wind Dir Waves Ship Positions
date/time (UTC)wind fromknots sea level pressurealtimeterstation pressurevisibilityair tempwater tempwave heightnotes
2017-Feb-20 07:54 221 0 gusting 4 4.4
2017-Feb-20 07:49 221 1 gusting 4 4.4
2017-Feb-20 07:43 221 1 gusting 3 4.4
2017-Feb-20 07:39 221 1 gusting 3 4.4
2017-Feb-20 07:33 221 2 gusting 3 3.9
2017-Feb-20 07:29 221 0 gusting 2 3.9
2017-Feb-20 07:24 221 1 gusting 3 3.9
2017-Feb-20 07:18 221 1 gusting 3 3.9
2017-Feb-20 07:14 221 0 gusting 2 3.9
2017-Feb-20 07:08 221 1 gusting 4 3.9
2017-Feb-20 07:04 221 2 gusting 4 3.9
2017-Feb-20 06:58 221 0 gusting 2 3.9
2017-Feb-20 06:54 221 1 3.9
2017-Feb-20 06:49 221 1 gusting 2 3.9
2017-Feb-20 06:44 221 1 gusting 3 3.9
2017-Feb-20 06:38 221 1 gusting 3 3.9
2017-Feb-20 06:34 221 1 gusting 2 3.9
2017-Feb-20 06:29 221 2 gusting 3 3.9
2017-Feb-20 06:23 221 3.9
2017-Feb-20 06:19 221 3.9
2017-Feb-20 06:13 221 3.9
2017-Feb-20 06:09 221 3.9
2017-Feb-20 06:03 221 3.9
2017-Feb-20 05:59 221 3.3
2017-Feb-20 05:53 221 3.3
2017-Feb-20 05:49 221 3.3
2017-Feb-20 05:44 221 3.3
2017-Feb-20 05:39 221 2 gusting 4 3.3
2017-Feb-20 05:34 221 284 gusting 284 3.3
2017-Feb-20 05:28 221 3.9
2017-Feb-20 05:24 221 0 gusting 2 3.9
2017-Feb-20 05:14 221 0 gusting 1 3.3
2017-Feb-20 05:08 221 0 gusting 1 3.3
2017-Feb-20 05:04 221 3.3
2017-Feb-20 04:58 221 3.3
2017-Feb-20 04:54 221 1 3.3
2017-Feb-20 04:49 221 1 gusting 3 3.3
2017-Feb-20 04:43 221 0 gusting 3 3.3
2017-Feb-20 04:39 221 1 gusting 4 3.3
2017-Feb-20 04:29 221 1 gusting 4 3.3
2017-Feb-20 04:24 221 1 gusting 2 3.3
2017-Feb-20 04:18 221 1 gusting 2 3.3
2017-Feb-20 04:14 221 284 gusting 284 3.3
2017-Feb-20 04:08 221 3.3
2017-Feb-20 04:04 221 284 gusting 284 3.3
2017-Feb-20 03:58 221 3.3
2017-Feb-20 03:54 221 1 gusting 3 3.3
2017-Feb-20 03:44 221 1 gusting 4 3.3
2017-Feb-20 03:38 221 2 gusting 3 3.3
2017-Feb-20 03:34 221 1 3.3
2017-Feb-20 03:19 221 1 gusting 3 3.9
2017-Feb-20 03:13 221 2 gusting 3 3.9
2017-Feb-20 03:04 222 2 gusting 3 3.9
2017-Feb-20 02:59 221 0 gusting 1 3.9
2017-Feb-20 02:54 221 3.9
2017-Feb-20 02:48 221 3.9
2017-Feb-20 02:39 221 3.9
2017-Feb-20 02:29 222 3.9
2017-Feb-20 02:24 221 3.9
2017-Feb-20 02:14 221 3.9
2017-Feb-20 02:03 221 284 gusting 284 4.4
2017-Feb-20 01:58 221 4.4
2017-Feb-20 01:53 222 4.4
2017-Feb-20 01:39 252 284 gusting 284 4.4
2017-Feb-20 01:33 251 4.4
2017-Feb-20 01:29 252 3.9
2017-Feb-20 01:23 240 1 gusting 4 3.9
2017-Feb-20 01:19 150 2 gusting 3 3.9
2017-Feb-20 01:13 139 0 gusting 3 3.9
2017-Feb-20 01:09 140 0 gusting 3 3.9
2017-Feb-20 00:54 140 1 gusting 4 3.9
2017-Feb-20 00:48 140 2 3.9
2017-Feb-20 00:44 144 2 3.9
2017-Feb-20 00:39 147 2 gusting 5 3.9
2017-Feb-20 00:33 151 284 gusting 284 3.9
2017-Feb-20 00:29 150 2 gusting 5 3.9
2017-Feb-20 00:23 157 3 gusting 6 3.9
2017-Feb-20 00:19 150 2 gusting 6 3.9
2017-Feb-20 00:13 159 2 gusting 5 3.9
2017-Feb-20 00:09 159 2 3.9
2017-Feb-20 00:04 151 2 gusting 6 3.9
2017-Feb-19 23:59 169 3 gusting 6 3.9
2017-Feb-19 23:53 169 3 gusting 6 3.9
2017-Feb-19 23:49 164 3 gusting 6 3.9
2017-Feb-19 23:43 167 2 gusting 4 3.9
2017-Feb-19 23:33 167 3 gusting 4 4.4
2017-Feb-19 23:24 165 3 gusting 4 4.4
2017-Feb-19 23:18 163 3 gusting 5 4.4
2017-Feb-19 23:14 169 3 gusting 5 4.4
2017-Feb-19 23:08 168 3 gusting 6 4.4
2017-Feb-19 23:03 171 4 gusting 6 4.4
2017-Feb-19 22:59 155 5 gusting 6 5.0
2017-Feb-19 22:54 168 3 gusting 6 5.0
2017-Feb-19 22:49 167 4 gusting 6 5.0
2017-Feb-19 22:43 162 4 gusting 6 5.0
2017-Feb-19 22:39 167 4 gusting 6 5.0
2017-Feb-19 22:34 161 4 gusting 6 5.0
2017-Feb-19 22:28 161 3 gusting 6 5.0
2017-Feb-19 22:24 177 3 gusting 6 5.0
2017-Feb-19 22:18 155 3 gusting 5 5.0
2017-Feb-19 22:14 174 2 gusting 5 5.0
2017-Feb-19 22:08 153 2 gusting 5 5.0
2017-Feb-19 22:04 147 2 gusting 5 5.0
2017-Feb-19 21:59 155 2 gusting 4 5.0
2017-Feb-19 21:54 155 2 gusting 5 5.6
2017-Feb-19 21:49 155 2 gusting 4 5.6
2017-Feb-19 21:43 159 2 gusting 6 5.6
2017-Feb-19 21:39 160 4 gusting 6 5.6
2017-Feb-19 21:33 149 3 gusting 5 5.6
2017-Feb-19 21:29 149 3 gusting 5 5.6
2017-Feb-19 21:23 158 2 gusting 5 5.6
2017-Feb-19 21:19 158 3 gusting 5 5.6
2017-Feb-19 21:13 174 4 gusting 5 6.1
2017-Feb-19 21:09 188 3 gusting 4 6.1
2017-Feb-19 21:04 188 3 gusting 6 6.1
2017-Feb-19 20:59 188 4 gusting 6 6.1
2017-Feb-19 20:54 168 4 gusting 6 6.1
2017-Feb-19 20:48 155 4 gusting 6 6.1
2017-Feb-19 20:44 163 4 gusting 6 6.7
2017-Feb-19 20:38 156 4 gusting 6 6.7
2017-Feb-19 20:34 168 4 gusting 5 6.7
2017-Feb-19 20:29 160 2 gusting 6 6.7
2017-Feb-19 20:23 148 3 gusting 6 6.7
2017-Feb-19 20:19 165 3 gusting 6 6.7
2017-Feb-19 20:13 175 4 gusting 6 6.7
2017-Feb-19 20:09 181 4 gusting 6 6.7
2017-Feb-19 20:04 175 3 gusting 6 6.7
2017-Feb-19 19:58 149 5 gusting 6 6.7
2017-Feb-19 19:54 132 5 gusting 6 6.7
2017-Feb-19 19:48 128 4 gusting 6 6.7
2017-Feb-19 19:44 175 5 gusting 6 6.7
2017-Feb-19 19:39 165 3 gusting 7 7.2
2017-Feb-19 19:33 157 4 gusting 8 7.2
2017-Feb-19 19:29 167 5 gusting 8 7.2
2017-Feb-19 19:23 173 5 gusting 8 7.2
2017-Feb-19 19:19 164 4 gusting 6 7.2
2017-Feb-19 19:13 146 4 gusting 7 7.2
2017-Feb-19 19:09 164 3 gusting 7 7.2
2017-Feb-19 19:03 192 2 gusting 6 7.2
2017-Feb-19 18:59 161 4 gusting 6 7.2
2017-Feb-19 18:53 153 2 gusting 5 7.2
2017-Feb-19 18:49 159 3 gusting 6 7.2
2017-Feb-19 18:44 165 2 gusting 5 7.2
2017-Feb-19 18:39 158 2 gusting 6 7.2
2017-Feb-19 18:33 136 3 gusting 6 7.8
2017-Feb-19 18:29 180 3 gusting 7 7.8
2017-Feb-19 18:23 163 3 gusting 5 7.8
2017-Feb-19 18:19 188 2 gusting 6 7.8
2017-Feb-19 18:14 146 1 gusting 6 7.8
2017-Feb-19 18:09 142 1 gusting 4 7.8
2017-Feb-19 18:04 147 1 gusting 4 7.8
2017-Feb-19 17:59 155 1 gusting 4 7.8
2017-Feb-19 17:54 159 0 gusting 6 7.8
2017-Feb-19 17:48 152 3 gusting 6 7.8
2017-Feb-19 17:44 152 0 gusting 5 8.3
2017-Feb-19 17:39 166 2 gusting 5 8.3
2017-Feb-19 17:34 132 3 gusting 6 8.3
2017-Feb-19 17:28 132 3 gusting 6 8.3
2017-Feb-19 17:24 123 4 gusting 6 8.3
2017-Feb-19 17:18 107 5 gusting 7 8.3
2017-Feb-19 17:14 125 5 gusting 7 8.3
2017-Feb-19 17:08 124 5 gusting 7 8.9
2017-Feb-19 17:04 123 3 gusting 7 8.9
2017-Feb-19 16:59 129 4 gusting 7 8.9
2017-Feb-19 16:54 109 3 gusting 7 8.9
2017-Feb-19 16:49 117 6 gusting 7 8.9
2017-Feb-19 16:38 090 5 gusting 8 9.4
2017-Feb-19 16:34 086 6 gusting 8 9.4
2017-Feb-19 16:29 115 4 gusting 6 9.4
2017-Feb-19 16:24 115 3 gusting 7 10.0
2017-Feb-19 16:19 121 3 gusting 7 10.0
2017-Feb-19 16:13 094 5 gusting 8 10.0
2017-Feb-19 16:09 094 6 gusting 8 10.0
2017-Feb-19 16:03 128 3 gusting 8 10.0
2017-Feb-19 15:59 107 5 gusting 8 10.0
2017-Feb-19 15:53 099 3 gusting 7 10.6
2017-Feb-19 15:49 102 3 gusting 7 10.6
2017-Feb-19 15:44 099 4 gusting 6 11.1
2017-Feb-19 15:39 075 3 gusting 8 11.1
2017-Feb-19 15:34 055 6 gusting 8 11.7
2017-Feb-19 15:29 059 5 gusting 8 11.7
2017-Feb-19 15:24 041 5 gusting 6 11.1
2017-Feb-19 15:18 086 3 gusting 6 11.1
2017-Feb-19 15:14 098 3 gusting 6 11.1
2017-Feb-19 15:09 089 2 gusting 7 11.1
2017-Feb-19 15:03 067 3 gusting 8 11.1
2017-Feb-19 14:59 052 5 gusting 8 11.1
2017-Feb-19 14:53 044 4 gusting 8 11.1
2017-Feb-19 14:49 044 5 gusting 11 10.6
2017-Feb-19 14:44 067 6 gusting 11 10.6
2017-Feb-19 14:39 054 6 gusting 10 10.6
2017-Feb-19 14:34 052 6 gusting 8 11.1
2017-Feb-19 14:29 080 6 gusting 8 11.1
2017-Feb-19 14:23 065 5 gusting 8 11.1
2017-Feb-19 14:19 072 6 gusting 9 10.6
2017-Feb-19 14:13 047 6 gusting 9 11.1
2017-Feb-19 14:09 086 5 gusting 9 11.7
2017-Feb-19 14:03 046 6 gusting 9 11.7
2017-Feb-19 13:59 070 6 gusting 9 11.7
2017-Feb-19 13:53 042 6 gusting 10 11.7
2017-Feb-19 13:48 059 5 gusting 10 11.7
2017-Feb-19 13:44 045 6 gusting 10 11.7
2017-Feb-19 13:38 053 6 gusting 8 11.7
2017-Feb-19 13:34 026 5 gusting 11 11.7
2017-Feb-19 13:28 077 6 gusting 11 11.7
2017-Feb-19 13:24 083 6 gusting 10 11.7
2017-Feb-19 13:18 068 6 gusting 11 11.7
2017-Feb-19 13:14 068 5 gusting 11 11.1
2017-Feb-19 13:08 054 8 gusting 11 11.1
2017-Feb-19 13:04 053 8 gusting 11 11.1
2017-Feb-19 12:58 051 6 gusting 10 11.1
2017-Feb-19 12:54 066 6 gusting 10 11.1
2017-Feb-19 12:48 068 6 gusting 10 11.1
2017-Feb-19 12:44 029 6 gusting 10 11.1
2017-Feb-19 12:38 057 6 gusting 10 11.1
2017-Feb-19 12:34 038 6 gusting 10 11.1
2017-Feb-19 12:28 053 7 gusting 10 11.1
2017-Feb-19 12:24 023 7 gusting 10 11.7
2017-Feb-19 12:18 036 6 gusting 9 11.7
2017-Feb-19 12:14 061 6 gusting 8 11.7
2017-Feb-19 12:08 042 6 gusting 8 11.7
2017-Feb-19 12:03 053 6 gusting 8 11.7
2017-Feb-19 11:59 032 6 gusting 8 11.7
2017-Feb-19 11:54 061 5 gusting 9 11.7
2017-Feb-19 11:48 024 5 gusting 9 11.7
2017-Feb-19 11:44 360 5 gusting 7 11.7
2017-Feb-19 11:38 013 5 gusting 7 11.7
2017-Feb-19 11:34 034 4 gusting 6 12.2
2017-Feb-19 11:28 026 4 gusting 6 12.2
2017-Feb-19 11:24 016 3 gusting 7 12.2
2017-Feb-19 11:19 037 3 gusting 6 12.2
2017-Feb-19 11:13 059 3 gusting 5 12.2
2017-Feb-19 11:09 031 2 gusting 5 12.2
2017-Feb-19 11:03 348 3 gusting 5 12.2
2017-Feb-19 10:59 051 2 gusting 5 11.7
2017-Feb-19 10:53 350 4 gusting 5 11.7
2017-Feb-19 10:48 011 2 gusting 5 11.7
2017-Feb-19 10:44 005 1 gusting 5 11.7
2017-Feb-19 10:38 348 3 gusting 5 11.7
2017-Feb-19 10:34 027 3 gusting 4 11.7
2017-Feb-19 10:28 034 2 gusting 4 11.1
2017-Feb-19 10:24 046 1 gusting 4 11.1
2017-Feb-19 10:19 360 2 gusting 4 11.1
2017-Feb-19 10:13 360 1 gusting 4 10.6
2017-Feb-19 10:09 031 2 gusting 4 10.6
2017-Feb-19 10:04 031 2 gusting 4 10.6
2017-Feb-19 09:59 031 1 gusting 4 10.0
2017-Feb-19 09:54 044 1 gusting 4 10.0
2017-Feb-19 09:48 044 1 gusting 4 10.0
2017-Feb-19 09:44 053 3 gusting 4 9.4
2017-Feb-19 09:33 350 1 gusting 4 8.9
2017-Feb-19 09:29 350 2 gusting 3 8.3
2017-Feb-19 09:23 350 0 gusting 4 8.3
2017-Feb-19 09:18 351 1 gusting 5 7.8
2017-Feb-19 09:14 351 1 gusting 5 7.8
2017-Feb-19 09:08 005 3 gusting 5 7.2
2017-Feb-19 09:03 005 2 gusting 5 7.2
2017-Feb-19 08:59 344 2 gusting 6 6.7
2017-Feb-19 08:53 300 4 gusting 6 6.7
2017-Feb-19 08:49 311 2 gusting 6 6.7
2017-Feb-19 08:43 331 2 gusting 5 6.7
2017-Feb-19 08:38 301 6.1
2017-Feb-19 08:34 323 1 gusting 4 6.1
2017-Feb-19 08:29 323 3 gusting 4 5.6
2017-Feb-19 08:24 323 5.6
2017-Feb-19 08:18 344 0 gusting 4 5.6
2017-Feb-19 08:14 344 5.0
2017-Feb-19 08:09 184 5.0
2017-Feb-19 08:03 184 4.4
2017-Feb-19 07:59 184 4.4
2017-Feb-19 07:54 184 0 gusting 3 3.9
2017-Feb-19 07:48 184 0 gusting 3 3.3
2017-Feb-19 07:44 184 3.3
2017-Feb-19 07:39 184 2.8
2017-Feb-19 07:33 184 2.8
2017-Feb-19 07:29 184 2 gusting 3 2.8
2017-Feb-19 07:23 184 1 gusting 2 2.2
2017-Feb-19 07:19 184 1 gusting 4 2.2
2017-Feb-19 07:14 184 2 gusting 4 2.2
2017-Feb-19 07:08 185 1 gusting 4 1.7
2017-Feb-19 07:04 185 2 gusting 4 1.7
2017-Feb-19 06:58 184 1 gusting 4 1.7
2017-Feb-19 06:53 185 1 gusting 4 1.7
2017-Feb-19 06:49 184 1 gusting 2 1.1
2017-Feb-19 06:43 184 0 gusting 4 1.1
2017-Feb-19 06:39 185 2 gusting 4 1.1
2017-Feb-19 06:34 185 3 gusting 4 1.1
2017-Feb-19 06:28 185 2 gusting 4 1.1
2017-Feb-19 06:18 184 2 gusting 4 1.1
2017-Feb-19 06:14 184 2 gusting 4 1.1
2017-Feb-19 06:08 184 1 gusting 4 1.1
2017-Feb-19 06:03 184 284 gusting 284 1.1
2017-Feb-19 05:59 184 3 gusting 4 1.1
2017-Feb-19 05:53 184 3 gusting 4 1.1
2017-Feb-19 05:49 185 2 gusting 5 1.1
2017-Feb-19 05:44 184 3 gusting 5 1.1
2017-Feb-19 05:39 167 4 gusting 5 1.1
2017-Feb-19 05:34 192 3 gusting 5 1.1
2017-Feb-19 05:29 192 3 gusting 5 1.1
2017-Feb-19 05:24 190 3 gusting 5 1.1
2017-Feb-19 05:19 186 2 gusting 4 1.1
2017-Feb-19 05:14 186 3 gusting 4 1.1
2017-Feb-19 05:04 186 3 gusting 4 1.1
2017-Feb-19 04:59 186 1 gusting 3 1.1
2017-Feb-19 04:54 186 2 gusting 3 1.1
2017-Feb-19 04:48 186 1 gusting 4 1.1
2017-Feb-19 04:44 186 2 gusting 4 1.1
2017-Feb-19 04:34 186 3 gusting 4 1.1
2017-Feb-19 04:28 186 2 gusting 4 1.1
2017-Feb-19 04:24 186 3 gusting 4 1.1
2017-Feb-19 04:14 186 2 gusting 4 1.1
2017-Feb-19 04:09 186 3 gusting 4 1.1
2017-Feb-19 04:03 186 2 1.1
2017-Feb-19 03:59 186 3 gusting 4 1.7
2017-Feb-19 03:48 186 3 gusting 4 1.7
2017-Feb-19 03:43 186 1 gusting 4 1.7
2017-Feb-19 03:39 205 3 gusting 5 1.7
2017-Feb-19 03:33 181 3 gusting 5 1.7
2017-Feb-19 03:28 180 3 gusting 6 1.7
2017-Feb-19 03:24 167 4 gusting 6 1.7
2017-Feb-19 03:18 178 3 gusting 5 1.7
2017-Feb-19 03:14 173 3 gusting 5 1.7
2017-Feb-19 03:04 180 2 gusting 5 1.7
2017-Feb-19 02:59 175 2 gusting 5 1.7
2017-Feb-19 02:49 182 3 gusting 5 1.7
2017-Feb-19 02:43 181 3 gusting 5 1.7
2017-Feb-19 02:39 180 3 gusting 5 1.7
2017-Feb-19 02:34 178 3 gusting 4 2.2
2017-Feb-19 02:29 178 284 gusting 284 2.2
2017-Feb-19 02:23 178 284 gusting 284 2.2
2017-Feb-19 02:14 178 284 gusting 284 2.2
2017-Feb-19 02:08 178 3 gusting 4 2.2
2017-Feb-19 02:04 178 3 gusting 4 2.2
2017-Feb-19 01:59 178 2 gusting 4 2.2
2017-Feb-19 01:54 178 1 gusting 4 2.2
2017-Feb-19 01:48 178 1 gusting 4 2.2
2017-Feb-19 01:38 178 3 gusting 4 2.2
2017-Feb-19 01:29 178 1 gusting 3 2.2
2017-Feb-19 01:19 178 3 gusting 5 2.2
2017-Feb-19 01:13 197 2 gusting 5 2.2
2017-Feb-19 01:04 207 4 gusting 5 2.2
2017-Feb-19 00:58 175 3 gusting 4 2.2
2017-Feb-19 00:49 188 1 gusting 3 2.8
2017-Feb-19 00:44 187 1 gusting 2 2.8
2017-Feb-19 00:39 188 2 gusting 4 2.8
2017-Feb-19 00:34 188 2 gusting 4 2.8
2017-Feb-19 00:28 187 2 gusting 4 2.8
2017-Feb-19 00:24 187 1 gusting 4 2.8
2017-Feb-19 00:18 187 2 gusting 4 2.8
2017-Feb-19 00:14 188 0 gusting 3 2.8
2017-Feb-19 00:08 188 1 gusting 4 2.8
2017-Feb-19 00:04 188 2 gusting 4 2.8
2017-Feb-18 23:59 193 1 gusting 3 2.8
2017-Feb-18 23:54 194 1 gusting 4 2.8
2017-Feb-18 23:49 194 0 gusting 4 2.8
2017-Feb-18 23:43 194 2 gusting 4 2.8
2017-Feb-18 23:39 194 2 gusting 4 3.3
2017-Feb-18 23:33 194 0 gusting 1 3.3
2017-Feb-18 23:29 194 3.3
2017-Feb-18 23:23 194 0 gusting 4 3.3
2017-Feb-18 23:19 194 3 gusting 5 3.3
2017-Feb-18 23:13 209 2 gusting 5 3.3
2017-Feb-18 23:09 175 1 gusting 4 3.3
2017-Feb-18 23:04 192 2 gusting 4 3.3
2017-Feb-18 22:58 192 1 gusting 5 3.3
2017-Feb-18 22:54 192 3 gusting 5 3.3
2017-Feb-18 22:48 177 3 gusting 4 3.3
2017-Feb-18 22:44 186 2 gusting 5 3.3
2017-Feb-18 22:38 155 3 gusting 4 3.3
2017-Feb-18 22:34 198 2 gusting 4 3.3
2017-Feb-18 22:28 199 1 gusting 5 3.3
2017-Feb-18 22:24 211 3 gusting 5 3.3
2017-Feb-18 22:18 205 1 gusting 5 3.3
2017-Feb-18 22:14 180 2 gusting 4 3.3
2017-Feb-18 22:09 179 1 gusting 4 3.9
2017-Feb-18 22:04 180 3 gusting 4 3.9
2017-Feb-18 21:58 179 2 gusting 4 3.9
2017-Feb-18 21:54 179 2 gusting 4 3.9
2017-Feb-18 21:48 180 1 gusting 5 3.9
2017-Feb-18 21:44 179 2 gusting 5 3.9
2017-Feb-18 21:38 175 2 gusting 5 3.9
2017-Feb-18 21:33 175 2 gusting 4 4.4
2017-Feb-18 21:29 175 2 gusting 4 4.4
2017-Feb-18 21:23 181 1 gusting 4 4.4
2017-Feb-18 21:19 181 1 gusting 4 4.4
2017-Feb-18 21:13 182 2 gusting 4 4.4
2017-Feb-18 21:09 195 3 gusting 4 4.4
2017-Feb-18 21:03 195 1 gusting 2 4.4
2017-Feb-18 20:59 195 1 gusting 2 4.4
2017-Feb-18 20:53 196 1 gusting 3 4.4
2017-Feb-18 20:49 195 1 gusting 4 5.0
2017-Feb-18 20:43 196 2 gusting 4 5.0
2017-Feb-18 20:39 195 2 gusting 4 5.0
2017-Feb-18 20:33 195 3 gusting 4 5.0
2017-Feb-18 20:29 195 2 gusting 4 5.0
2017-Feb-18 20:24 195 1 gusting 3 5.6
2017-Feb-18 20:19 195 5.6
2017-Feb-18 20:13 195 1 gusting 4 5.6
2017-Feb-18 20:09 195 3 gusting 4 5.6
2017-Feb-18 20:03 203 2 gusting 4 5.6
2017-Feb-18 19:59 203 1 gusting 2 5.6
2017-Feb-18 19:53 203 1 gusting 4 6.1
2017-Feb-18 19:49 203 1 gusting 4 6.1
2017-Feb-18 19:43 186 2 gusting 4 6.1
2017-Feb-18 19:39 226 1 gusting 2 6.1
2017-Feb-18 19:33 226 1 gusting 3 6.1
2017-Feb-18 19:29 226 1 gusting 2 6.1
2017-Feb-18 19:23 226 6.1
2017-Feb-18 19:19 225 0 gusting 4 6.1
2017-Feb-18 19:13 177 1 gusting 2 6.7
2017-Feb-18 19:09 177 1 gusting 2 6.7
2017-Feb-18 19:03 177 1 gusting 2 6.7
2017-Feb-18 18:59 177 1 gusting 4 6.7
2017-Feb-18 18:53 177 3 gusting 4 6.7
2017-Feb-18 18:49 177 2 gusting 4 7.2
2017-Feb-18 18:43 170 1 gusting 3 7.2
2017-Feb-18 18:39 170 1 gusting 3 7.2
2017-Feb-18 18:33 168 2 gusting 2 7.2
2017-Feb-18 18:29 166 1 gusting 3 7.8
2017-Feb-18 18:23 166 0 gusting 2 7.8
2017-Feb-18 18:19 166 7.8
2017-Feb-18 18:13 166 1 gusting 3 7.8
2017-Feb-18 18:09 166 7.8
2017-Feb-18 18:03 166 8.3
2017-Feb-18 17:59 166 0 gusting 2 8.3
2017-Feb-18 17:53 166 1 gusting 3 8.3
2017-Feb-18 17:49 166 1 gusting 4 8.9
2017-Feb-18 17:43 166 1 gusting 4 8.9
2017-Feb-18 17:39 208 1 gusting 3 8.9
2017-Feb-18 17:34 331 0 gusting 1 9.4
2017-Feb-18 17:28 331 9.4
2017-Feb-18 17:23 331 9.4
2017-Feb-18 17:19 331 9.4
2017-Feb-18 17:13 331 9.4
2017-Feb-18 17:09 331 9.4
2017-Feb-18 17:04 331 9.4
2017-Feb-18 16:59 331 1 gusting 3 10.0
2017-Feb-18 16:53 331 1 gusting 2 10.0
2017-Feb-18 16:48 332 1 gusting 4 10.0
2017-Feb-18 16:44 332 2 gusting 4 10.0
2017-Feb-18 16:39 321 2 gusting 4 10.6
2017-Feb-18 16:34 321 2 gusting 4 11.1
2017-Feb-18 16:28 321 2 gusting 4 11.1
2017-Feb-18 16:24 326 11.7
2017-Feb-18 16:19 326 11.7
2017-Feb-18 16:14 326 11.7
2017-Feb-18 16:09 326 0 gusting 3 12.2
2017-Feb-18 16:04 326 0 gusting 3 12.2
2017-Feb-18 15:58 326 2 gusting 3 12.2
2017-Feb-18 15:53 316 0 gusting 4 12.2
2017-Feb-18 15:48 336 2 gusting 5 11.7
2017-Feb-18 15:43 323 1 gusting 5 11.7
2017-Feb-18 15:39 020 2 gusting 4 11.7
2017-Feb-18 15:33 329 2 gusting 5 11.7
2017-Feb-18 15:29 326 0 gusting 5 11.7
2017-Feb-18 15:24 326 2 gusting 5 11.7
2017-Feb-18 15:19 328 3 gusting 5 11.7
2017-Feb-18 15:14 348 4 gusting 6 12.2
2017-Feb-18 15:09 360 3 gusting 6 12.2
2017-Feb-18 15:04 019 4 gusting 6 12.2
2017-Feb-18 14:59 349 3 gusting 5 12.2
2017-Feb-18 14:53 301 3 gusting 5 12.2
2017-Feb-18 14:49 350 1 gusting 6 12.2
2017-Feb-18 14:44 009 4 gusting 6 12.2
2017-Feb-18 14:39 328 3 gusting 6 12.2
2017-Feb-18 14:33 011 3 gusting 7 11.7
2017-Feb-18 14:28 360 4 gusting 7 11.7
2017-Feb-18 14:23 355 3 gusting 6 11.7
2017-Feb-18 14:19 316 4 gusting 6 11.1
2017-Feb-18 14:14 317 4 gusting 7 11.1
2017-Feb-18 14:08 333 5 gusting 7 11.1
2017-Feb-18 14:03 346 5 gusting 7 11.1
2017-Feb-18 13:58 319 5 gusting 7 11.1
2017-Feb-18 13:54 336 3 gusting 7 11.7
2017-Feb-18 13:49 346 4 gusting 7 11.7
2017-Feb-18 13:44 321 4 gusting 8 11.1
2017-Feb-18 13:39 329 5 gusting 8 11.1
2017-Feb-18 13:34 342 5 gusting 8 11.1
2017-Feb-18 13:28 318 6 gusting 8 11.1
2017-Feb-18 13:23 303 6 gusting 8 11.7
2017-Feb-18 13:18 307 2 gusting 9 11.7
2017-Feb-18 13:14 338 5 gusting 8 11.7
2017-Feb-18 13:09 325 5 gusting 8 11.1
2017-Feb-18 13:04 325 4 gusting 8 11.1
2017-Feb-18 12:58 298 6 gusting 10 11.1
2017-Feb-18 12:54 311 5 gusting 10 11.7
2017-Feb-18 12:48 332 4 gusting 8 11.1
2017-Feb-18 12:43 005 6 gusting 9 11.1
2017-Feb-18 12:39 339 7 gusting 9 11.7
2017-Feb-18 12:34 328 4 gusting 9 11.7
2017-Feb-18 12:29 334 6 gusting 8 11.7
2017-Feb-18 12:23 332 5 gusting 8 11.7
2017-Feb-18 12:18 301 5 gusting 8 11.7
2017-Feb-18 12:14 009 5 gusting 9 11.7
2017-Feb-18 12:08 333 5 gusting 9 11.7
2017-Feb-18 12:04 005 4 gusting 9 11.7
2017-Feb-18 11:58 360 6 gusting 9 11.1
2017-Feb-18 11:54 344 6 gusting 9 11.1
2017-Feb-18 11:49 331 6 gusting 8 11.1
2017-Feb-18 11:44 327 6 gusting 8 11.7
2017-Feb-18 11:38 306 6 gusting 8 11.7
2017-Feb-18 11:34 344 3 gusting 8 11.7
2017-Feb-18 11:28 335 6 gusting 8 11.1
2017-Feb-18 11:24 333 5 gusting 7 11.1
2017-Feb-18 11:19 345 5 gusting 6 11.1
2017-Feb-18 11:13 324 4 gusting 7 11.1
2017-Feb-18 11:09 297 5 gusting 7 11.1
2017-Feb-18 11:03 296 5 gusting 8 11.1
2017-Feb-18 10:59 333 4 gusting 7 11.7
2017-Feb-18 10:53 328 6 gusting 8 11.1
2017-Feb-18 10:49 322 5 gusting 8 11.1
2017-Feb-18 10:44 360 3 gusting 9 10.6
2017-Feb-18 10:38 344 5 gusting 7 10.6
2017-Feb-18 10:34 355 5 gusting 8 10.6
2017-Feb-18 10:28 342 5 gusting 8 10.6
2017-Feb-18 10:23 310 4 gusting 9 10.0
2017-Feb-18 10:19 321 5 gusting 8 10.0
2017-Feb-18 10:13 317 4 gusting 8 10.0
2017-Feb-18 10:08 295 6 gusting 8 10.0
2017-Feb-18 10:04 340 4 gusting 7 10.0
2017-Feb-18 09:58 302 6 gusting 7 9.4
2017-Feb-18 09:53 323 5 gusting 7 9.4
2017-Feb-18 09:48 315 6 gusting 10 10.0
2017-Feb-18 09:44 338 5 gusting 10 9.4
2017-Feb-18 09:38 342 5 gusting 8 9.4
2017-Feb-18 09:34 330 6 gusting 8 9.4
2017-Feb-18 09:29 331 5 gusting 7 9.4
2017-Feb-18 09:23 321 6 gusting 7 9.4
2017-Feb-18 09:18 283 2 gusting 7 9.4
2017-Feb-18 09:14 323 5 gusting 8 9.4
2017-Feb-18 09:08 329 4 gusting 8 9.4
2017-Feb-18 09:04 350 4 gusting 7 9.4
2017-Feb-18 08:58 350 5 gusting 6 9.4
2017-Feb-18 08:54 284 4 gusting 6 8.9
2017-Feb-18 08:48 300 4 gusting 6 8.9
2017-Feb-18 08:43 299 4 gusting 6 8.9
2017-Feb-18 08:39 329 4 gusting 6 8.9
2017-Feb-18 08:34 304 4 gusting 6 8.9
2017-Feb-18 08:28 318 3 gusting 6 8.9
2017-Feb-18 08:24 269 0 gusting 5 8.3
2017-Feb-18 08:18 345 3 gusting 6 8.3
2017-Feb-18 08:14 302 4 gusting 6 8.3
2017-Feb-18 08:08 296 2 gusting 6 8.3
2017-Feb-18 08:04 257 4 gusting 7 8.3